createdAt,value
2023-03-19T00:00:26.720Z,0.00
2023-03-19T00:01:26.660Z,0.00
2023-03-19T00:02:26.677Z,0.00
2023-03-19T00:03:26.783Z,0.00
2023-03-19T00:04:26.531Z,0.00
2023-03-19T00:05:26.500Z,0.00
2023-03-19T00:06:26.443Z,0.00
2023-03-19T00:07:26.409Z,0.00
2023-03-19T00:08:26.359Z,0.00
2023-03-19T00:09:26.325Z,0.00
2023-03-19T00:10:26.271Z,0.00
2023-03-19T00:11:26.231Z,0.00
2023-03-19T00:12:26.189Z,0.00
2023-03-19T00:13:26.140Z,0.00
2023-03-19T00:14:26.094Z,0.00
2023-03-19T00:15:26.081Z,0.00
2023-03-19T00:16:26.047Z,0.00
2023-03-19T00:17:25.963Z,0.00
2023-03-19T00:18:25.920Z,0.00
2023-03-19T00:19:25.876Z,0.00
2023-03-19T00:20:25.835Z,0.00
2023-03-19T00:21:26.113Z,0.00
2023-03-19T00:22:25.757Z,0.00
2023-03-19T00:23:25.702Z,0.00
2023-03-19T00:24:25.650Z,0.00
2023-03-19T00:25:25.619Z,0.00
2023-03-19T00:26:25.570Z,0.00
2023-03-19T00:27:25.546Z,0.00
2023-03-19T00:28:25.506Z,0.00
2023-03-19T00:29:25.434Z,0.00
2023-03-19T00:30:25.423Z,0.00
2023-03-19T00:31:25.368Z,0.00
2023-03-19T00:32:25.303Z,0.00
2023-03-19T00:33:25.271Z,0.00
2023-03-19T00:34:25.226Z,0.00
2023-03-19T00:35:25.214Z,0.00
2023-03-19T00:36:25.125Z,0.00
2023-03-19T00:37:25.087Z,0.00
2023-03-19T00:38:25.047Z,0.00
2023-03-19T00:39:24.991Z,0.00
2023-03-19T00:40:24.950Z,0.00
2023-03-19T00:41:24.959Z,0.00
2023-03-19T00:42:24.862Z,0.00
2023-03-19T00:43:24.824Z,0.00
2023-03-19T00:44:24.787Z,0.00
2023-03-19T00:45:24.733Z,0.00
2023-03-19T00:46:24.775Z,0.00
2023-03-19T00:47:24.651Z,0.00
2023-03-19T00:48:24.601Z,0.00
2023-03-19T00:49:24.554Z,0.00
2023-03-19T00:50:24.637Z,0.00
2023-03-19T00:51:24.464Z,0.00
2023-03-19T00:52:24.422Z,0.00
2023-03-19T00:53:24.379Z,0.00
2023-03-19T00:54:24.336Z,0.00
2023-03-19T00:55:24.300Z,0.00
2023-03-19T00:56:24.268Z,0.00
2023-03-19T00:57:24.204Z,0.00
2023-03-19T00:58:24.159Z,0.00
2023-03-19T00:59:24.113Z,0.00
2023-03-19T01:00:24.070Z,0.00
2023-03-19T01:01:24.065Z,0.00
2023-03-19T01:02:23.989Z,0.00
2023-03-19T01:03:23.936Z,0.00
2023-03-19T01:04:23.922Z,0.00
2023-03-19T01:05:23.847Z,0.00
2023-03-19T01:06:23.806Z,0.00
2023-03-19T01:07:23.789Z,0.00
2023-03-19T01:08:23.730Z,0.00
2023-03-19T01:09:23.673Z,0.00
2023-03-19T01:10:23.625Z,0.00
2023-03-19T01:11:23.582Z,0.00
2023-03-19T01:12:23.537Z,0.00
2023-03-19T01:13:23.538Z,0.00
2023-03-19T01:14:23.442Z,0.00
2023-03-19T01:15:23.417Z,0.00
2023-03-19T01:16:23.357Z,0.00
2023-03-19T01:17:23.315Z,0.00
2023-03-19T01:18:23.273Z,0.00
2023-03-19T01:19:23.244Z,0.00
2023-03-19T01:20:23.188Z,0.00
2023-03-19T01:21:23.267Z,0.00
2023-03-19T01:22:23.095Z,0.00
2023-03-19T01:23:23.051Z,0.00
2023-03-19T01:24:23.011Z,0.00
2023-03-19T01:25:22.967Z,0.00
2023-03-19T01:26:22.918Z,0.00
2023-03-19T01:27:22.894Z,0.00
2023-03-19T01:28:22.834Z,0.00
2023-03-19T01:29:22.790Z,0.00
2023-03-19T01:30:22.738Z,0.00
2023-03-19T01:31:22.726Z,0.00
2023-03-19T01:32:22.645Z,0.00
2023-03-19T01:33:25.511Z,0.00
2023-03-19T01:34:22.561Z,0.00
2023-03-19T01:35:22.531Z,0.00
2023-03-19T01:36:22.484Z,0.00
2023-03-19T01:37:22.451Z,0.00
2023-03-19T01:38:22.503Z,0.00
2023-03-19T01:39:22.344Z,0.00
2023-03-19T01:40:22.302Z,0.00
2023-03-19T01:41:22.258Z,0.00
2023-03-19T01:42:22.211Z,0.00
2023-03-19T01:43:22.173Z,0.00
2023-03-19T01:44:22.141Z,0.00
2023-03-19T01:45:22.109Z,0.00
2023-03-19T01:46:22.143Z,0.00
2023-03-19T01:47:21.991Z,0.00
2023-03-19T01:48:21.942Z,0.00
2023-03-19T01:49:21.901Z,0.00
2023-03-19T01:50:21.873Z,0.00
2023-03-19T01:51:21.823Z,0.00
2023-03-19T01:52:21.763Z,0.00
2023-03-19T01:53:21.724Z,0.00
2023-03-19T01:54:21.678Z,0.00
2023-03-19T01:55:21.635Z,0.00
2023-03-19T01:56:21.623Z,0.00
2023-03-19T01:57:21.547Z,0.00
2023-03-19T01:58:21.544Z,0.00
2023-03-19T01:59:21.456Z,0.00
2023-03-19T02:00:21.413Z,0.00
2023-03-19T02:01:21.386Z,0.00
2023-03-19T02:02:21.399Z,0.00
2023-03-19T02:03:21.281Z,0.00
2023-03-19T02:04:21.270Z,0.00
2023-03-19T02:05:21.192Z,0.00
2023-03-19T02:06:21.150Z,0.00
2023-03-19T02:07:21.120Z,0.00
2023-03-19T02:08:21.075Z,0.00
2023-03-19T02:09:21.018Z,0.00
2023-03-19T02:10:20.998Z,0.00
2023-03-19T02:11:20.934Z,0.00
2023-03-19T02:12:20.879Z,0.00
2023-03-19T02:13:20.868Z,0.00
2023-03-19T02:14:20.914Z,0.00
2023-03-19T02:15:20.759Z,0.00
2023-03-19T02:16:20.779Z,0.00
2023-03-19T02:17:20.662Z,0.00
2023-03-19T02:18:20.648Z,0.00
2023-03-19T02:19:20.572Z,0.00
2023-03-19T02:20:20.533Z,0.00
2023-03-19T02:21:20.507Z,0.00
2023-03-19T02:22:20.441Z,0.00
2023-03-19T02:23:20.397Z,0.00
2023-03-19T02:24:20.374Z,0.00
2023-03-19T02:25:20.346Z,0.00
2023-03-19T02:26:20.264Z,0.00
2023-03-19T02:27:20.246Z,0.00
2023-03-19T02:28:20.173Z,0.00
2023-03-19T02:29:20.128Z,0.00
2023-03-19T02:30:20.086Z,0.00
2023-03-19T02:31:20.067Z,0.00
2023-03-19T02:32:20.022Z,0.00
2023-03-19T02:33:19.955Z,0.00
2023-03-19T02:34:19.912Z,0.00
2023-03-19T02:35:19.866Z,0.00
2023-03-19T02:36:19.819Z,0.00
2023-03-19T02:37:19.785Z,0.00
2023-03-19T02:38:19.768Z,0.00
2023-03-19T02:39:19.694Z,0.00
2023-03-19T02:40:19.642Z,0.00
2023-03-19T02:41:19.605Z,0.00
2023-03-19T02:42:19.562Z,0.00
2023-03-19T02:43:19.517Z,0.00
2023-03-19T02:44:19.639Z,0.00
2023-03-19T02:45:19.424Z,0.00
2023-03-19T02:46:19.450Z,0.00
2023-03-19T02:47:19.342Z,0.00
2023-03-19T02:48:19.294Z,0.00
2023-03-19T02:49:19.250Z,0.00
2023-03-19T02:50:19.218Z,0.00
2023-03-19T02:51:19.163Z,0.00
2023-03-19T02:52:19.117Z,0.00
2023-03-19T02:53:19.092Z,0.00
2023-03-19T02:54:19.036Z,0.00
2023-03-19T02:55:18.983Z,0.00
2023-03-19T02:56:18.937Z,0.00
2023-03-19T02:57:18.901Z,0.00
2023-03-19T02:58:18.852Z,0.00
2023-03-19T02:59:18.833Z,0.00
2023-03-19T03:00:18.770Z,0.00
2023-03-19T03:01:18.743Z,0.00
2023-03-19T03:02:18.703Z,0.00
2023-03-19T03:03:18.638Z,0.00
2023-03-19T03:04:18.590Z,0.00
2023-03-19T03:05:18.728Z,0.00
2023-03-19T03:06:18.502Z,0.00
2023-03-19T03:07:18.462Z,0.00
2023-03-19T03:08:18.420Z,0.00
2023-03-19T03:09:18.437Z,0.00
2023-03-19T03:10:18.328Z,0.00
2023-03-19T03:11:18.419Z,0.00
2023-03-19T03:12:18.240Z,0.00
2023-03-19T03:13:18.195Z,0.00
2023-03-19T03:14:18.170Z,0.00
2023-03-19T03:15:18.117Z,0.00
2023-03-19T03:16:18.087Z,0.00
2023-03-19T03:17:18.050Z,0.00
2023-03-19T03:18:17.981Z,0.00
2023-03-19T03:19:17.936Z,0.00
2023-03-19T03:20:17.888Z,0.00
2023-03-19T03:21:17.846Z,0.00
2023-03-19T03:22:17.807Z,0.00
2023-03-19T03:23:17.783Z,0.00
2023-03-19T03:24:17.717Z,0.00
2023-03-19T03:25:17.667Z,0.00
2023-03-19T03:26:17.623Z,0.00
2023-03-19T03:27:17.580Z,0.00
2023-03-19T03:28:17.558Z,0.00
2023-03-19T03:29:17.489Z,0.00
2023-03-19T03:30:17.475Z,0.00
2023-03-19T03:31:17.511Z,0.00
2023-03-19T03:32:17.367Z,0.00
2023-03-19T03:33:17.324Z,0.00
2023-03-19T03:34:17.271Z,0.00
2023-03-19T03:35:17.239Z,0.00
2023-03-19T03:36:17.179Z,0.00
2023-03-19T03:37:17.138Z,0.00
2023-03-19T03:38:17.101Z,0.00
2023-03-19T03:39:17.047Z,0.00
2023-03-19T03:40:17.005Z,0.00
2023-03-19T03:41:16.977Z,0.00
2023-03-19T03:42:17.096Z,0.00
2023-03-19T03:43:16.870Z,0.00
2023-03-19T03:44:16.830Z,0.00
2023-03-19T03:45:16.776Z,0.00
2023-03-19T03:46:16.784Z,0.00
2023-03-19T03:47:16.686Z,0.00
2023-03-19T03:48:16.674Z,0.00
2023-03-19T03:49:16.607Z,0.00
2023-03-19T03:50:16.556Z,0.00
2023-03-19T03:51:16.510Z,0.00
2023-03-19T03:52:16.471Z,0.00
2023-03-19T03:53:16.430Z,0.00
2023-03-19T03:54:16.392Z,0.00
2023-03-19T03:55:16.334Z,0.00
2023-03-19T03:56:16.295Z,0.00
2023-03-19T03:57:16.245Z,0.00
2023-03-19T03:58:16.212Z,0.00
2023-03-19T03:59:16.278Z,0.00
2023-03-19T04:00:16.111Z,0.00
2023-03-19T04:01:16.067Z,0.00
2023-03-19T04:02:16.092Z,0.00
2023-03-19T04:03:16.033Z,0.00
2023-03-19T04:04:15.934Z,0.00
2023-03-19T04:05:15.912Z,0.00
2023-03-19T04:06:15.844Z,0.00
2023-03-19T04:07:15.805Z,0.00
2023-03-19T04:08:15.767Z,0.00
2023-03-19T04:09:15.715Z,0.00
2023-03-19T04:10:15.683Z,0.00
2023-03-19T04:11:15.670Z,0.00
2023-03-19T04:12:15.576Z,0.00
2023-03-19T04:13:15.536Z,0.00
2023-03-19T04:14:15.495Z,0.00
2023-03-19T04:15:15.462Z,0.00
2023-03-19T04:16:15.420Z,0.00
2023-03-19T04:17:15.367Z,0.00
2023-03-19T04:18:15.310Z,0.00
2023-03-19T04:19:15.271Z,0.00
2023-03-19T04:20:15.246Z,0.00
2023-03-19T04:21:15.178Z,0.00
2023-03-19T04:22:15.146Z,0.00
2023-03-19T04:23:15.091Z,0.00
2023-03-19T04:24:15.063Z,0.00
2023-03-19T04:25:14.995Z,0.00
2023-03-19T04:26:14.959Z,0.00
2023-03-19T04:27:14.915Z,0.00
2023-03-19T04:28:14.870Z,0.00
2023-03-19T04:29:14.820Z,0.00
2023-03-19T04:30:14.805Z,0.00
2023-03-19T04:31:14.764Z,0.00
2023-03-19T04:32:14.708Z,0.00
2023-03-19T04:33:14.645Z,0.00
2023-03-19T04:34:14.621Z,0.00
2023-03-19T04:35:14.576Z,0.00
2023-03-19T04:36:14.522Z,0.00
2023-03-19T04:37:14.466Z,0.00
2023-03-19T04:38:14.455Z,0.00
2023-03-19T04:39:14.388Z,0.00
2023-03-19T04:40:14.331Z,0.00
2023-03-19T04:41:14.289Z,0.00
2023-03-19T04:42:14.265Z,0.00
2023-03-19T04:43:14.208Z,0.00
2023-03-19T04:44:14.152Z,0.00
2023-03-19T04:45:14.105Z,0.00
2023-03-19T04:46:14.148Z,0.00
2023-03-19T04:47:14.017Z,0.00
2023-03-19T04:48:14.007Z,0.00
2023-03-19T04:49:13.930Z,0.00
2023-03-19T04:50:13.893Z,0.00
2023-03-19T04:51:13.838Z,0.00
2023-03-19T04:52:13.806Z,0.00
2023-03-19T04:53:13.757Z,0.00
2023-03-19T04:54:13.738Z,0.00
2023-03-19T04:55:13.671Z,0.00
2023-03-19T04:56:13.621Z,0.00
2023-03-19T04:57:13.580Z,0.00
2023-03-19T04:58:13.541Z,0.00
2023-03-19T04:59:13.484Z,0.00
2023-03-19T05:00:13.472Z,0.00
2023-03-19T05:01:13.454Z,0.00
2023-03-19T05:02:13.351Z,0.00
2023-03-19T05:03:13.306Z,0.00
2023-03-19T05:04:13.344Z,0.00
2023-03-19T05:05:13.216Z,0.00
2023-03-19T05:06:13.210Z,0.00
2023-03-19T05:07:13.135Z,0.00
2023-03-19T05:08:13.085Z,0.00
2023-03-19T05:09:13.038Z,0.00
2023-03-19T05:10:13.003Z,0.00
2023-03-19T05:11:12.952Z,0.00
2023-03-19T05:12:12.920Z,0.00
2023-03-19T05:13:12.864Z,4.00
2023-03-19T05:14:12.820Z,4.00
2023-03-19T05:15:12.771Z,4.00
2023-03-19T05:16:12.750Z,4.00
2023-03-19T05:17:12.689Z,8.00
2023-03-19T05:18:12.654Z,4.00
2023-03-19T05:19:12.596Z,8.00
2023-03-19T05:20:12.569Z,8.00
2023-03-19T05:21:12.502Z,12.00
2023-03-19T05:22:12.464Z,12.00
2023-03-19T05:23:12.407Z,12.00
2023-03-19T05:24:12.379Z,12.00
2023-03-19T05:25:12.325Z,16.00
2023-03-19T05:26:12.293Z,24.00
2023-03-19T05:27:12.228Z,24.00
2023-03-19T05:28:12.186Z,28.00
2023-03-19T05:29:12.145Z,36.00
2023-03-19T05:30:12.128Z,40.00
2023-03-19T05:31:12.057Z,48.00
2023-03-19T05:32:12.028Z,56.00
2023-03-19T05:33:12.017Z,68.00
2023-03-19T05:34:11.916Z,84.00
2023-03-19T05:35:11.871Z,96.00
2023-03-19T05:36:11.834Z,112.00
2023-03-19T05:37:11.780Z,128.00
2023-03-19T05:38:11.753Z,148.00
2023-03-19T05:39:11.720Z,160.00
2023-03-19T05:40:11.652Z,172.00
2023-03-19T05:41:11.629Z,168.00
2023-03-19T05:42:11.561Z,176.00
2023-03-19T05:43:11.520Z,188.00
2023-03-19T05:44:11.480Z,204.00
2023-03-19T05:45:11.428Z,224.00
2023-03-19T05:46:11.443Z,248.00
2023-03-19T05:47:11.354Z,280.00
2023-03-19T05:48:11.293Z,320.00
2023-03-19T05:49:11.258Z,356.00
2023-03-19T05:50:11.204Z,392.00
2023-03-19T05:51:11.155Z,420.00
2023-03-19T05:52:11.108Z,444.00
2023-03-19T05:53:11.086Z,472.00
2023-03-19T05:54:11.029Z,508.00
2023-03-19T05:55:10.984Z,544.00
2023-03-19T05:56:10.940Z,592.00
2023-03-19T05:57:10.885Z,632.00
2023-03-19T05:58:10.841Z,672.00
2023-03-19T05:59:10.838Z,716.00
2023-03-19T06:03:48.757Z,1036.00
2023-03-19T06:04:47.586Z,1136.00
2023-03-19T06:05:47.731Z,1232.00
2023-03-19T06:06:47.355Z,1320.00
2023-03-19T06:07:47.497Z,1392.00
2023-03-19T06:08:47.313Z,1512.00
2023-03-19T06:09:47.218Z,1688.00
2023-03-19T06:10:47.317Z,1904.00
2023-03-19T06:11:47.267Z,2100.00
2023-03-19T06:12:47.085Z,2276.00
2023-03-19T06:13:47.293Z,2424.00
2023-03-19T06:14:47.006Z,2584.00
2023-03-19T06:15:46.985Z,2784.00
2023-03-19T06:16:47.239Z,3000.00
2023-03-19T06:17:46.960Z,3236.00
2023-03-19T06:18:47.032Z,3476.00
2023-03-19T06:19:46.784Z,3696.00
2023-03-19T06:20:46.964Z,3876.00
2023-03-19T06:21:47.043Z,4032.00
2023-03-19T06:22:46.931Z,4172.00
2023-03-19T06:23:46.606Z,4308.00
2023-03-19T06:24:47.040Z,4440.00
2023-03-19T06:25:46.606Z,4580.00
2023-03-19T06:26:46.518Z,4772.00
2023-03-19T06:27:46.513Z,5016.00
2023-03-19T06:28:46.705Z,5276.00
2023-03-19T06:29:46.378Z,5572.00
2023-03-19T06:30:46.468Z,5836.00
2023-03-19T06:31:46.310Z,6044.00
2023-03-19T06:32:46.232Z,6244.00
2023-03-19T06:33:46.185Z,6404.00
2023-03-19T06:34:46.397Z,6332.00
2023-03-19T06:35:46.180Z,6088.00
2023-03-19T06:36:46.353Z,5840.00
2023-03-19T06:37:45.968Z,5696.00
2023-03-19T06:38:45.923Z,5648.00
2023-03-19T06:39:45.987Z,5652.00
2023-03-19T06:40:46.002Z,5676.00
2023-03-19T06:41:53.650Z,5736.00
2023-03-19T06:42:48.039Z,5828.00
2023-03-19T06:43:45.751Z,5948.00
2023-03-19T06:44:45.757Z,6068.00
2023-03-19T06:45:46.977Z,6124.00
2023-03-19T06:46:45.810Z,6196.00
2023-03-19T06:47:45.528Z,6200.00
2023-03-19T06:48:45.721Z,6164.00
2023-03-19T06:49:45.437Z,6032.00
2023-03-19T06:50:45.629Z,5772.00
2023-03-19T06:51:45.393Z,5404.00
2023-03-19T06:52:53.172Z,4976.00
2023-03-19T06:53:46.509Z,4616.00
2023-03-19T06:54:45.220Z,4332.00
2023-03-19T06:55:45.177Z,4064.00
2023-03-19T06:56:45.129Z,3820.00
2023-03-19T06:57:46.204Z,3612.00
2023-03-19T06:58:45.040Z,3492.00
2023-03-19T06:59:45.284Z,3480.00
2023-03-19T07:00:46.203Z,3592.00
2023-03-19T07:01:44.985Z,3856.00
2023-03-19T07:02:45.045Z,4256.00
2023-03-19T07:03:45.144Z,4756.00
2023-03-19T07:04:44.776Z,5328.00
2023-03-19T07:05:44.916Z,5920.00
2023-03-19T07:06:44.686Z,6472.00
2023-03-19T07:07:44.752Z,6980.00
2023-03-19T07:08:44.878Z,7456.00
2023-03-19T07:09:44.562Z,7924.00
2023-03-19T07:10:44.963Z,8360.00
2023-03-19T07:11:44.474Z,8796.00
2023-03-19T07:12:44.661Z,9276.00
2023-03-19T07:13:44.383Z,9784.00
2023-03-19T07:14:44.476Z,10372.00
2023-03-19T07:15:44.290Z,10952.00
2023-03-19T07:16:44.481Z,11600.00
2023-03-19T07:17:44.220Z,12256.00
2023-03-19T07:18:44.215Z,12884.00
2023-03-19T07:19:44.129Z,13444.00
2023-03-19T07:20:44.219Z,13868.00
2023-03-19T07:21:44.050Z,14152.00
2023-03-19T07:22:44.488Z,14412.00
2023-03-19T07:23:43.979Z,14620.00
2023-03-19T07:24:43.963Z,14832.00
2023-03-19T07:25:43.862Z,14912.00
2023-03-19T07:26:43.952Z,14724.00
2023-03-19T07:27:43.770Z,14500.00
2023-03-19T07:28:43.965Z,14260.00
2023-03-19T07:29:43.815Z,14268.00
2023-03-19T07:30:43.671Z,14440.00
2023-03-19T07:31:43.795Z,14632.00
2023-03-19T07:32:43.576Z,14860.00
2023-03-19T07:33:43.791Z,15108.00
2023-03-19T07:34:43.464Z,15376.00
2023-03-19T07:35:43.427Z,15632.00
2023-03-19T07:36:43.659Z,15760.00
2023-03-19T07:37:43.556Z,15788.00
2023-03-19T07:38:43.295Z,15672.00
2023-03-19T07:39:43.433Z,15560.00
2023-03-19T07:40:51.336Z,15300.00
2023-03-19T07:41:43.160Z,14672.00
2023-03-19T07:42:45.247Z,13796.00
2023-03-19T07:43:43.085Z,12748.00
2023-03-19T07:44:43.464Z,11688.00
2023-03-19T07:45:43.070Z,10892.00
2023-03-19T07:46:43.083Z,10544.00
2023-03-19T07:47:42.911Z,10464.00
2023-03-19T07:48:43.116Z,10628.00
2023-03-19T07:49:42.875Z,10956.00
2023-03-19T07:50:43.150Z,11496.00
2023-03-19T07:51:42.767Z,12176.00
2023-03-19T07:52:42.922Z,12604.00
2023-03-19T07:53:42.643Z,12868.00
2023-03-19T07:54:43.759Z,12956.00
2023-03-19T07:55:42.697Z,12852.00
2023-03-19T07:56:42.842Z,12872.00
2023-03-19T07:57:42.499Z,13012.00
2023-03-19T07:58:42.638Z,13324.00
2023-03-19T07:59:42.423Z,13596.00
2023-03-19T08:00:42.554Z,13620.00
2023-03-19T08:01:42.337Z,13380.00
2023-03-19T08:02:42.747Z,12944.00
2023-03-19T08:03:42.220Z,12236.00
2023-03-19T08:04:42.721Z,11448.00
2023-03-19T08:05:42.169Z,10780.00
2023-03-19T08:06:43.322Z,10384.00
2023-03-19T08:07:42.049Z,10036.00
2023-03-19T08:08:42.312Z,9896.00
2023-03-19T08:09:42.099Z,9920.00
2023-03-19T08:10:42.186Z,10052.00
2023-03-19T08:11:41.885Z,10220.00
2023-03-19T08:12:43.161Z,10184.00
2023-03-19T08:13:41.795Z,10396.00
2023-03-19T08:14:42.052Z,10716.00
2023-03-19T08:15:41.712Z,11036.00
2023-03-19T08:16:41.713Z,11220.00
2023-03-19T08:17:41.633Z,11320.00
2023-03-19T08:18:41.768Z,11420.00
2023-03-19T08:19:41.571Z,11596.00
2023-03-19T08:20:41.776Z,11824.00
2023-03-19T08:21:41.469Z,12116.00
2023-03-19T08:22:41.421Z,12256.00
2023-03-19T08:23:41.402Z,12496.00
2023-03-19T08:24:41.522Z,12636.00
2023-03-19T08:25:41.298Z,12516.00
2023-03-19T08:26:41.509Z,12708.00
2023-03-19T08:27:41.202Z,13492.00
2023-03-19T08:28:41.215Z,14380.00
2023-03-19T08:29:41.112Z,15168.00
2023-03-19T08:30:41.293Z,15912.00
2023-03-19T08:31:41.031Z,16880.00
2023-03-19T08:32:41.296Z,18464.00
2023-03-19T08:33:40.949Z,19584.00
2023-03-19T08:34:41.006Z,20256.00
2023-03-19T08:35:40.886Z,20736.00
2023-03-19T08:36:40.981Z,20384.00
2023-03-19T08:37:40.786Z,18656.00
2023-03-19T08:38:40.883Z,16100.00
2023-03-19T08:39:40.717Z,13788.00
2023-03-19T08:40:40.667Z,11704.00
2023-03-19T08:41:40.608Z,10068.00
2023-03-19T08:42:42.037Z,9044.00
2023-03-19T08:43:40.522Z,8540.00
2023-03-19T08:44:40.774Z,8340.00
2023-03-19T08:45:40.628Z,8360.00
2023-03-19T08:46:40.541Z,8700.00
2023-03-19T08:47:40.391Z,9212.00
2023-03-19T08:48:41.542Z,9680.00
2023-03-19T08:49:40.272Z,10192.00
2023-03-19T08:50:40.353Z,10856.00
2023-03-19T08:51:40.192Z,11588.00
2023-03-19T08:52:40.162Z,12560.00
2023-03-19T08:53:40.231Z,14128.00
2023-03-19T08:54:40.221Z,16176.00
2023-03-19T08:55:40.023Z,18208.00
2023-03-19T08:56:40.305Z,19392.00
2023-03-19T08:57:39.939Z,20320.00
2023-03-19T08:58:39.895Z,21184.00
2023-03-19T08:59:39.906Z,21920.00
2023-03-19T09:00:39.914Z,22432.00
2023-03-19T09:01:39.796Z,22912.00
2023-03-19T09:02:40.049Z,23584.00
2023-03-19T09:03:39.715Z,23680.00
2023-03-19T09:04:39.663Z,23680.00
2023-03-19T09:05:39.794Z,23968.00
2023-03-19T09:06:39.791Z,24544.00
2023-03-19T09:07:39.526Z,25568.00
2023-03-19T09:08:39.599Z,26432.00
2023-03-19T09:09:39.440Z,27392.00
2023-03-19T09:10:39.402Z,28608.00
2023-03-19T09:11:39.407Z,30176.00
2023-03-19T09:12:39.502Z,32352.00
2023-03-19T09:13:39.303Z,33792.00
2023-03-19T09:14:39.291Z,32576.00
2023-03-19T09:15:39.297Z,31296.00
2023-03-19T09:16:39.152Z,30752.00
2023-03-19T09:17:39.241Z,31040.00
2023-03-19T09:18:47.729Z,30272.00
2023-03-19T09:19:47.847Z,30560.00
2023-03-19T09:20:38.990Z,32832.00
2023-03-19T09:21:46.812Z,31488.00
2023-03-19T09:22:38.938Z,31072.00
2023-03-19T09:23:38.872Z,31648.00
2023-03-19T09:24:40.579Z,32864.00
2023-03-19T09:25:38.798Z,32544.00
2023-03-19T09:26:39.003Z,31456.00
2023-03-19T09:27:46.844Z,30880.00
2023-03-19T09:28:38.670Z,30720.00
2023-03-19T09:29:46.909Z,30720.00
2023-03-19T09:30:47.440Z,30688.00
2023-03-19T09:31:47.056Z,30592.00
2023-03-19T09:32:47.087Z,30560.00
2023-03-19T09:33:38.625Z,30496.00
2023-03-19T09:34:39.638Z,31200.00
2023-03-19T09:35:38.439Z,33056.00
2023-03-19T09:36:39.474Z,35776.00
2023-03-19T09:37:38.310Z,39552.00
2023-03-19T09:38:38.657Z,47392.00
2023-03-19T09:39:38.229Z,51104.00
2023-03-19T09:40:38.202Z,58784.00
2023-03-19T09:41:38.379Z,89920.00
2023-03-19T09:42:38.169Z,83424.00
2023-03-19T09:43:38.180Z,75456.00
2023-03-19T09:44:38.065Z,65792.00
2023-03-19T09:45:38.190Z,83968.00
2023-03-19T09:46:38.128Z,88352.00
2023-03-19T09:47:38.010Z,89024.00
2023-03-19T09:48:39.098Z,84512.00
2023-03-19T09:49:38.023Z,92480.00
2023-03-19T09:50:37.824Z,64320.00
2023-03-19T09:51:38.998Z,91808.00
2023-03-19T09:52:37.735Z,70976.00
2023-03-19T09:53:37.736Z,80672.00
2023-03-19T09:54:37.671Z,78752.00
2023-03-19T09:55:39.014Z,71776.00
2023-03-19T09:56:37.596Z,84224.00
2023-03-19T09:57:37.798Z,70944.00
2023-03-19T09:58:37.527Z,78944.00
2023-03-19T09:59:37.589Z,88672.00
2023-03-19T10:00:37.509Z,88704.00
2023-03-19T10:01:37.625Z,61888.00
2023-03-19T10:02:37.388Z,69824.00
2023-03-19T10:03:37.438Z,73312.00
2023-03-19T10:04:37.422Z,48320.00
2023-03-19T10:05:37.444Z,47072.00
2023-03-19T10:06:37.444Z,45440.00
2023-03-19T10:07:37.504Z,42720.00
2023-03-19T10:08:37.249Z,40448.00
2023-03-19T10:09:37.162Z,38368.00
2023-03-19T10:10:37.114Z,36736.00
2023-03-19T10:11:38.269Z,36384.00
2023-03-19T10:12:37.045Z,37792.00
2023-03-19T10:13:37.080Z,39040.00
2023-03-19T10:14:36.980Z,41472.00
2023-03-19T10:15:37.380Z,43840.00
2023-03-19T10:16:36.937Z,73248.00
2023-03-19T10:17:37.110Z,56160.00
2023-03-19T10:18:36.829Z,53408.00
2023-03-19T10:19:39.944Z,55840.00
2023-03-19T10:20:36.759Z,53184.00
2023-03-19T10:21:36.857Z,47232.00
2023-03-19T10:22:36.864Z,47264.00
2023-03-19T10:23:36.647Z,55680.00
2023-03-19T10:24:57.741Z,51040.00
2023-03-19T10:25:37.632Z,47136.00
2023-03-19T10:26:36.771Z,45600.00
2023-03-19T10:27:36.512Z,46624.00
2023-03-19T10:28:36.463Z,49984.00
2023-03-19T10:29:36.575Z,50688.00
2023-03-19T10:30:36.668Z,67456.00
2023-03-19T10:31:36.624Z,72672.00
2023-03-19T10:32:36.400Z,52800.00
2023-03-19T10:33:36.477Z,46912.00
2023-03-19T10:34:36.245Z,46016.00
2023-03-19T10:35:36.543Z,49152.00
2023-03-19T10:36:36.186Z,46720.00
2023-03-19T10:37:36.516Z,46912.00
2023-03-19T10:38:36.105Z,45792.00
2023-03-19T10:39:36.174Z,43488.00
2023-03-19T10:40:36.022Z,44704.00
2023-03-19T10:41:36.213Z,39456.00
2023-03-19T10:42:35.996Z,39008.00
2023-03-19T10:43:35.975Z,43968.00
2023-03-19T10:44:35.893Z,56384.00
2023-03-19T10:45:36.899Z,77472.00
2023-03-19T10:46:35.808Z,75648.00
2023-03-19T10:47:35.915Z,65760.00
2023-03-19T10:48:35.963Z,54592.00
2023-03-19T10:49:35.913Z,48832.00
2023-03-19T10:50:35.679Z,58080.00
2023-03-19T10:51:35.633Z,60704.00
2023-03-19T10:52:35.783Z,48608.00
2023-03-19T10:53:35.647Z,48160.00
2023-03-19T10:54:35.500Z,44384.00
2023-03-19T10:55:35.960Z,43072.00
2023-03-19T10:56:35.425Z,42720.00
2023-03-19T10:57:35.424Z,40096.00
2023-03-19T10:58:35.365Z,37056.00
2023-03-19T10:59:36.421Z,33120.00
2023-03-19T11:00:35.365Z,30560.00
2023-03-19T11:01:36.728Z,28416.00
2023-03-19T11:02:35.208Z,26720.00
2023-03-19T11:05:07.256Z,25600.00
2023-03-19T11:06:06.917Z,26208.00
2023-03-19T11:07:07.061Z,26144.00
2023-03-19T11:08:06.932Z,25888.00
2023-03-19T11:09:06.868Z,26496.00
2023-03-19T11:10:06.725Z,26848.00
2023-03-19T11:11:06.791Z,26496.00
2023-03-19T11:12:06.656Z,25856.00
2023-03-19T11:13:06.901Z,25600.00
2023-03-19T11:14:06.594Z,25600.00
2023-03-19T11:15:07.740Z,25568.00
2023-03-19T11:16:06.489Z,24864.00
2023-03-19T11:17:06.521Z,23680.00
2023-03-19T11:18:06.417Z,21888.00
2023-03-19T11:19:06.698Z,20256.00
2023-03-19T11:20:06.331Z,19200.00
2023-03-19T11:21:06.571Z,18464.00
2023-03-19T11:22:06.256Z,18048.00
2023-03-19T11:23:06.359Z,17824.00
2023-03-19T11:24:06.194Z,17824.00
2023-03-19T11:25:06.446Z,17856.00
2023-03-19T11:26:06.130Z,17952.00
2023-03-19T11:27:06.240Z,18112.00
2023-03-19T11:28:06.010Z,18112.00
2023-03-19T11:29:06.051Z,17920.00
2023-03-19T11:30:05.933Z,17824.00
2023-03-19T11:31:05.964Z,17600.00
2023-03-19T11:32:20.296Z,17408.00
2023-03-19T11:33:05.897Z,17536.00
2023-03-19T11:34:05.913Z,17888.00
2023-03-19T11:35:05.803Z,18272.00
2023-03-19T11:36:05.742Z,19008.00
2023-03-19T11:37:05.750Z,19968.00
2023-03-19T11:38:05.632Z,20896.00
2023-03-19T11:39:05.925Z,21632.00
2023-03-19T11:40:05.780Z,22080.00
2023-03-19T11:41:05.565Z,22432.00
2023-03-19T11:42:05.539Z,22944.00
2023-03-19T11:43:05.451Z,23584.00
2023-03-19T11:44:05.558Z,23936.00
2023-03-19T11:45:05.436Z,24064.00
2023-03-19T11:46:05.549Z,24448.00
2023-03-19T11:47:12.232Z,25696.00
2023-03-19T11:48:05.234Z,26656.00
2023-03-19T11:49:05.348Z,29376.00
2023-03-19T11:50:05.155Z,30432.00
2023-03-19T11:51:05.313Z,31840.00
2023-03-19T11:52:12.891Z,31456.00
2023-03-19T11:53:12.942Z,29728.00
2023-03-19T11:54:12.988Z,29344.00
2023-03-19T11:55:13.015Z,28384.00
2023-03-19T11:57:47.121Z,34432.00
2023-03-19T11:58:51.383Z,37120.00
2023-03-19T12:01:30.615Z,38112.00
2023-03-19T12:02:22.651Z,34848.00
2023-03-19T12:03:30.176Z,30784.00
2023-03-19T12:04:22.340Z,26944.00
2023-03-19T12:05:30.689Z,23680.00
2023-03-19T12:06:30.242Z,20896.00
2023-03-19T12:07:22.218Z,19040.00
2023-03-19T12:08:31.770Z,18048.00
2023-03-19T12:09:22.122Z,17824.00
2023-03-19T12:10:22.080Z,18240.00
2023-03-19T12:11:22.302Z,19552.00
2023-03-19T12:12:22.013Z,20224.00
2023-03-19T12:13:22.191Z,20960.00
2023-03-19T12:14:22.000Z,22656.00
2023-03-19T12:15:21.909Z,24768.00
2023-03-19T12:16:22.130Z,26656.00
2023-03-19T12:17:21.822Z,27904.00
2023-03-19T12:18:21.766Z,28768.00
2023-03-19T12:19:21.934Z,29600.00
2023-03-19T12:20:21.894Z,30208.00
2023-03-19T12:21:21.637Z,30176.00
2023-03-19T12:22:21.693Z,29824.00
2023-03-19T12:23:21.545Z,29856.00
2023-03-19T12:24:21.709Z,30592.00
2023-03-19T12:25:21.460Z,33120.00
2023-03-19T12:26:21.523Z,37728.00
2023-03-19T12:27:21.397Z,42048.00
2023-03-19T12:28:21.340Z,46816.00
2023-03-19T12:29:21.340Z,50592.00
2023-03-19T12:30:21.391Z,54048.00
2023-03-19T12:31:21.445Z,75552.00
2023-03-19T12:32:21.180Z,85344.00
2023-03-19T12:33:21.325Z,75488.00
2023-03-19T12:34:21.282Z,80640.00
2023-03-19T12:35:21.063Z,60512.00